sensor_id;sensor_type;location;lat;lon;timestamp;P1;durP1;ratioP1;P2;durP2;ratioP2
65583;SDS011;62116;43.582;1.470;2023-02-11T00:00:34;32.75;;;15.15;;
65583;SDS011;62116;43.582;1.470;2023-02-11T00:03:03;30.48;;;14.85;;
65583;SDS011;62116;43.582;1.470;2023-02-11T00:05:28;30.15;;;15.10;;
65583;SDS011;62116;43.582;1.470;2023-02-11T00:07:55;31.98;;;14.00;;
65583;SDS011;62116;43.582;1.470;2023-02-11T00:10:21;29.48;;;13.77;;
65583;SDS011;62116;43.582;1.470;2023-02-11T00:12:46;28.77;;;13.35;;
65583;SDS011;62116;43.582;1.470;2023-02-11T00:15:11;29.75;;;13.68;;
65583;SDS011;62116;43.582;1.470;2023-02-11T00:17:37;28.65;;;13.32;;
65583;SDS011;62116;43.582;1.470;2023-02-11T00:20:02;28.33;;;13.38;;
65583;SDS011;62116;43.582;1.470;2023-02-11T00:22:28;29.00;;;13.73;;
65583;SDS011;62116;43.582;1.470;2023-02-11T00:24:53;28.20;;;14.00;;
65583;SDS011;62116;43.582;1.470;2023-02-11T00:27:21;31.00;;;13.93;;
65583;SDS011;62116;43.582;1.470;2023-02-11T00:29:46;31.48;;;13.15;;
65583;SDS011;62116;43.582;1.470;2023-02-11T00:32:12;29.42;;;13.15;;
65583;SDS011;62116;43.582;1.470;2023-02-11T00:34:37;26.80;;;12.43;;
65583;SDS011;62116;43.582;1.470;2023-02-11T00:37:03;30.05;;;13.45;;
65583;SDS011;62116;43.582;1.470;2023-02-11T00:39:29;25.65;;;12.38;;
65583;SDS011;62116;43.582;1.470;2023-02-11T00:41:55;25.35;;;12.63;;
65583;SDS011;62116;43.582;1.470;2023-02-11T00:44:21;29.27;;;13.82;;
65583;SDS011;62116;43.582;1.470;2023-02-11T00:46:46;26.63;;;13.05;;
65583;SDS011;62116;43.582;1.470;2023-02-11T00:49:12;29.45;;;13.13;;
65583;SDS011;62116;43.582;1.470;2023-02-11T00:51:37;29.27;;;12.77;;
65583;SDS011;62116;43.582;1.470;2023-02-11T00:54:03;26.80;;;12.45;;
65583;SDS011;62116;43.582;1.470;2023-02-11T00:56:29;26.80;;;12.60;;
65583;SDS011;62116;43.582;1.470;2023-02-11T00:58:55;25.15;;;12.63;;
65583;SDS011;62116;43.582;1.470;2023-02-11T01:01:21;28.65;;;13.45;;
65583;SDS011;62116;43.582;1.470;2023-02-11T01:03:46;27.52;;;12.93;;
65583;SDS011;62116;43.582;1.470;2023-02-11T01:06:12;28.38;;;12.88;;
65583;SDS011;62116;43.582;1.470;2023-02-11T01:08:37;29.13;;;13.48;;
65583;SDS011;62116;43.582;1.470;2023-02-11T01:11:04;26.33;;;13.00;;
65583;SDS011;62116;43.582;1.470;2023-02-11T01:13:33;29.98;;;13.05;;
65583;SDS011;62116;43.582;1.470;2023-02-11T01:16:01;30.35;;;12.95;;
65583;SDS011;62116;43.582;1.470;2023-02-11T01:18:27;27.05;;;13.73;;
65583;SDS011;62116;43.582;1.470;2023-02-11T01:20:52;28.13;;;13.80;;
65583;SDS011;62116;43.582;1.470;2023-02-11T01:23:18;28.08;;;13.15;;
65583;SDS011;62116;43.582;1.470;2023-02-11T01:25:45;27.95;;;12.55;;
65583;SDS011;62116;43.582;1.470;2023-02-11T01:28:18;29.38;;;12.85;;
65583;SDS011;62116;43.582;1.470;2023-02-11T01:30:46;28.50;;;12.40;;
65583;SDS011;62116;43.582;1.470;2023-02-11T01:33:11;25.23;;;12.48;;
65583;SDS011;62116;43.582;1.470;2023-02-11T01:35:38;28.83;;;13.20;;
65583;SDS011;62116;43.582;1.470;2023-02-11T01:38:04;25.48;;;12.35;;
65583;SDS011;62116;43.582;1.470;2023-02-11T01:40:31;26.48;;;12.48;;
65583;SDS011;62116;43.582;1.470;2023-02-11T01:42:56;25.13;;;12.32;;
65583;SDS011;62116;43.582;1.470;2023-02-11T01:48:10;25.02;;;12.73;;
65583;SDS011;62116;43.582;1.470;2023-02-11T01:50:38;25.73;;;12.35;;
65583;SDS011;62116;43.582;1.470;2023-02-11T01:53:05;28.10;;;11.85;;
65583;SDS011;62116;43.582;1.470;2023-02-11T01:55:50;24.45;;;12.48;;
65583;SDS011;62116;43.582;1.470;2023-02-11T01:58:36;23.10;;;11.50;;
65583;SDS011;62116;43.582;1.470;2023-02-11T02:01:05;23.42;;;11.07;;
65583;SDS011;62116;43.582;1.470;2023-02-11T02:03:35;26.50;;;11.50;;
65583;SDS011;62116;43.582;1.470;2023-02-11T02:06:15;27.95;;;11.68;;
65583;SDS011;62116;43.582;1.470;2023-02-11T02:08:51;22.23;;;11.10;;
65583;SDS011;62116;43.582;1.470;2023-02-11T02:11:20;23.60;;;10.75;;
65583;SDS011;62116;43.582;1.470;2023-02-11T02:13:46;25.38;;;11.88;;
65583;SDS011;62116;43.582;1.470;2023-02-11T02:16:14;24.40;;;11.45;;
65583;SDS011;62116;43.582;1.470;2023-02-11T02:37:32;24.88;;;10.88;;
65583;SDS011;62116;43.582;1.470;2023-02-11T02:40:08;22.58;;;10.40;;
65583;SDS011;62116;43.582;1.470;2023-02-11T02:42:47;23.88;;;11.45;;
65583;SDS011;62116;43.582;1.470;2023-02-11T02:45:14;25.02;;;11.48;;
65583;SDS011;62116;43.582;1.470;2023-02-11T02:47:40;19.90;;;11.02;;
65583;SDS011;62116;43.582;1.470;2023-02-11T02:50:06;25.15;;;10.65;;
65583;SDS011;62116;43.582;1.470;2023-02-11T02:56:33;22.25;;;10.35;;
65583;SDS011;62116;43.582;1.470;2023-02-11T03:09:08;24.70;;;10.75;;
65583;SDS011;62116;43.582;1.470;2023-02-11T03:11:40;24.15;;;11.00;;
65583;SDS011;62116;43.582;1.470;2023-02-11T03:14:07;22.80;;;11.25;;
65583;SDS011;62116;43.582;1.470;2023-02-11T03:16:35;29.80;;;11.75;;
65583;SDS011;62116;43.582;1.470;2023-02-11T03:19:22;25.30;;;11.52;;
65583;SDS011;62116;43.582;1.470;2023-02-11T03:21:54;25.67;;;11.52;;
65583;SDS011;62116;43.582;1.470;2023-02-11T03:24:28;23.63;;;11.80;;
65583;SDS011;62116;43.582;1.470;2023-02-11T03:26:58;22.38;;;11.02;;
65583;SDS011;62116;43.582;1.470;2023-02-11T03:32:20;24.60;;;11.98;;
65583;SDS011;62116;43.582;1.470;2023-02-11T03:40:02;24.17;;;11.50;;
65583;SDS011;62116;43.582;1.470;2023-02-11T03:42:33;28.88;;;11.85;;
65583;SDS011;62116;43.582;1.470;2023-02-11T03:45:07;23.52;;;11.02;;
65583;SDS011;62116;43.582;1.470;2023-02-11T03:47:35;23.52;;;11.98;;
65583;SDS011;62116;43.582;1.470;2023-02-11T03:50:03;25.27;;;12.13;;
65583;SDS011;62116;43.582;1.470;2023-02-11T03:52:31;26.77;;;11.95;;
65583;SDS011;62116;43.582;1.470;2023-02-11T03:54:59;22.63;;;11.20;;
65583;SDS011;62116;43.582;1.470;2023-02-11T03:57:28;26.58;;;11.52;;
65583;SDS011;62116;43.582;1.470;2023-02-11T03:59:55;22.25;;;10.95;;
65583;SDS011;62116;43.582;1.470;2023-02-11T04:02:40;22.65;;;11.43;;
65583;SDS011;62116;43.582;1.470;2023-02-11T04:05:07;22.85;;;11.07;;
65583;SDS011;62116;43.582;1.470;2023-02-11T04:07:34;21.05;;;10.32;;
65583;SDS011;62116;43.582;1.470;2023-02-11T04:09:59;23.27;;;10.43;;
65583;SDS011;62116;43.582;1.470;2023-02-11T04:12:25;24.65;;;10.73;;
65583;SDS011;62116;43.582;1.470;2023-02-11T04:14:50;21.83;;;10.40;;
65583;SDS011;62116;43.582;1.470;2023-02-11T04:17:16;22.25;;;10.35;;
65583;SDS011;62116;43.582;1.470;2023-02-11T04:19:41;22.25;;;10.93;;
65583;SDS011;62116;43.582;1.470;2023-02-11T04:22:07;24.27;;;11.27;;
65583;SDS011;62116;43.582;1.470;2023-02-11T04:24:33;23.10;;;11.20;;
65583;SDS011;62116;43.582;1.470;2023-02-11T04:26:59;22.63;;;11.05;;
65583;SDS011;62116;43.582;1.470;2023-02-11T04:29:24;21.90;;;10.38;;
65583;SDS011;62116;43.582;1.470;2023-02-11T04:31:50;18.98;;;10.35;;
65583;SDS011;62116;43.582;1.470;2023-02-11T04:34:16;20.77;;;10.48;;
65583;SDS011;62116;43.582;1.470;2023-02-11T04:36:42;22.73;;;10.45;;
65583;SDS011;62116;43.582;1.470;2023-02-11T04:39:07;22.50;;;10.70;;
65583;SDS011;62116;43.582;1.470;2023-02-11T04:41:32;22.17;;;9.98;;
65583;SDS011;62116;43.582;1.470;2023-02-11T04:43:58;19.50;;;9.80;;
65583;SDS011;62116;43.582;1.470;2023-02-11T04:46:23;21.10;;;10.05;;
65583;SDS011;62116;43.582;1.470;2023-02-11T04:48:49;20.88;;;10.00;;
65583;SDS011;62116;43.582;1.470;2023-02-11T04:51:14;19.73;;;9.63;;
65583;SDS011;62116;43.582;1.470;2023-02-11T04:53:40;21.38;;;9.98;;
65583;SDS011;62116;43.582;1.470;2023-02-11T04:56:05;19.17;;;10.52;;
65583;SDS011;62116;43.582;1.470;2023-02-11T04:58:31;20.15;;;9.98;;
65583;SDS011;62116;43.582;1.470;2023-02-11T05:01:03;20.25;;;10.32;;
65583;SDS011;62116;43.582;1.470;2023-02-11T05:03:36;21.45;;;9.70;;
65583;SDS011;62116;43.582;1.470;2023-02-11T05:06:01;19.65;;;9.35;;
65583;SDS011;62116;43.582;1.470;2023-02-11T05:08:28;20.00;;;9.57;;
65583;SDS011;62116;43.582;1.470;2023-02-11T05:10:53;17.70;;;8.88;;
65583;SDS011;62116;43.582;1.470;2023-02-11T05:13:19;22.42;;;9.57;;
65583;SDS011;62116;43.582;1.470;2023-02-11T05:15:44;20.70;;;9.02;;
65583;SDS011;62116;43.582;1.470;2023-02-11T05:18:10;18.30;;;9.23;;
65583;SDS011;62116;43.582;1.470;2023-02-11T05:20:38;19.23;;;9.70;;
65583;SDS011;62116;43.582;1.470;2023-02-11T05:23:03;22.50;;;9.48;;
65583;SDS011;62116;43.582;1.470;2023-02-11T05:25:29;18.98;;;9.25;;
65583;SDS011;62116;43.582;1.470;2023-02-11T05:27:54;21.80;;;9.93;;
65583;SDS011;62116;43.582;1.470;2023-02-11T05:30:19;18.08;;;8.95;;
65583;SDS011;62116;43.582;1.470;2023-02-11T05:32:45;21.95;;;9.05;;
65583;SDS011;62116;43.582;1.470;2023-02-11T05:35:10;19.73;;;9.23;;
65583;SDS011;62116;43.582;1.470;2023-02-11T05:37:36;21.70;;;9.55;;
65583;SDS011;62116;43.582;1.470;2023-02-11T05:40:01;16.52;;;8.65;;
65583;SDS011;62116;43.582;1.470;2023-02-11T05:42:27;17.80;;;8.95;;
65583;SDS011;62116;43.582;1.470;2023-02-11T05:44:53;19.30;;;9.63;;
65583;SDS011;62116;43.582;1.470;2023-02-11T05:47:18;25.10;;;9.35;;
65583;SDS011;62116;43.582;1.470;2023-02-11T05:49:44;19.17;;;9.00;;
65583;SDS011;62116;43.582;1.470;2023-02-11T05:52:09;17.08;;;8.43;;
65583;SDS011;62116;43.582;1.470;2023-02-11T05:54:34;17.75;;;8.57;;
65583;SDS011;62116;43.582;1.470;2023-02-11T05:57:00;15.10;;;8.50;;
65583;SDS011;62116;43.582;1.470;2023-02-11T05:59:25;18.58;;;9.02;;
65583;SDS011;62116;43.582;1.470;2023-02-11T06:01:51;20.20;;;9.20;;
65583;SDS011;62116;43.582;1.470;2023-02-11T06:04:16;17.92;;;8.70;;
65583;SDS011;62116;43.582;1.470;2023-02-11T06:06:41;17.58;;;9.15;;
65583;SDS011;62116;43.582;1.470;2023-02-11T06:09:08;22.75;;;8.95;;
65583;SDS011;62116;43.582;1.470;2023-02-11T06:11:34;17.80;;;8.68;;
65583;SDS011;62116;43.582;1.470;2023-02-11T06:13:59;17.10;;;9.13;;
65583;SDS011;62116;43.582;1.470;2023-02-11T06:16:25;19.33;;;9.38;;
65583;SDS011;62116;43.582;1.470;2023-02-11T06:18:51;20.75;;;9.50;;
65583;SDS011;62116;43.582;1.470;2023-02-11T06:21:16;22.50;;;9.02;;
65583;SDS011;62116;43.582;1.470;2023-02-11T06:23:42;16.92;;;8.48;;
65583;SDS011;62116;43.582;1.470;2023-02-11T06:26:08;21.75;;;9.23;;
65583;SDS011;62116;43.582;1.470;2023-02-11T06:28:39;21.98;;;9.20;;
65583;SDS011;62116;43.582;1.470;2023-02-11T06:31:05;20.70;;;9.27;;
65583;SDS011;62116;43.582;1.470;2023-02-11T06:33:32;18.98;;;8.50;;
65583;SDS011;62116;43.582;1.470;2023-02-11T06:35:58;23.58;;;9.00;;
65583;SDS011;62116;43.582;1.470;2023-02-11T06:38:24;19.70;;;9.25;;
65583;SDS011;62116;43.582;1.470;2023-02-11T06:40:49;19.60;;;9.38;;
65583;SDS011;62116;43.582;1.470;2023-02-11T06:43:15;21.45;;;9.05;;
65583;SDS011;62116;43.582;1.470;2023-02-11T06:45:41;21.10;;;9.23;;
65583;SDS011;62116;43.582;1.470;2023-02-11T06:48:07;21.20;;;9.60;;
65583;SDS011;62116;43.582;1.470;2023-02-11T06:50:32;23.45;;;9.35;;
65583;SDS011;62116;43.582;1.470;2023-02-11T06:52:58;20.10;;;9.57;;
65583;SDS011;62116;43.582;1.470;2023-02-11T06:55:24;22.77;;;9.88;;
65583;SDS011;62116;43.582;1.470;2023-02-11T06:57:50;23.05;;;10.63;;
65583;SDS011;62116;43.582;1.470;2023-02-11T07:00:15;23.50;;;10.77;;
65583;SDS011;62116;43.582;1.470;2023-02-11T07:02:41;20.33;;;10.45;;
65583;SDS011;62116;43.582;1.470;2023-02-11T07:05:07;22.45;;;11.07;;
65583;SDS011;62116;43.582;1.470;2023-02-11T07:07:32;19.10;;;10.05;;
65583;SDS011;62116;43.582;1.470;2023-02-11T07:09:58;19.67;;;10.40;;
65583;SDS011;62116;43.582;1.470;2023-02-11T07:12:23;21.35;;;11.18;;
65583;SDS011;62116;43.582;1.470;2023-02-11T07:14:49;22.30;;;11.35;;
65583;SDS011;62116;43.582;1.470;2023-02-11T07:17:14;26.92;;;13.23;;
65583;SDS011;62116;43.582;1.470;2023-02-11T07:19:40;27.33;;;13.32;;
65583;SDS011;62116;43.582;1.470;2023-02-11T07:22:05;26.73;;;12.80;;
65583;SDS011;62116;43.582;1.470;2023-02-11T07:24:31;27.52;;;14.90;;
65583;SDS011;62116;43.582;1.470;2023-02-11T07:26:56;32.10;;;14.82;;
65583;SDS011;62116;43.582;1.470;2023-02-11T07:29:22;36.78;;;16.25;;
65583;SDS011;62116;43.582;1.470;2023-02-11T07:31:47;26.67;;;12.73;;
65583;SDS011;62116;43.582;1.470;2023-02-11T07:34:13;25.25;;;12.60;;
65583;SDS011;62116;43.582;1.470;2023-02-11T07:36:38;26.00;;;12.20;;
65583;SDS011;62116;43.582;1.470;2023-02-11T07:39:03;23.25;;;11.40;;
65583;SDS011;62116;43.582;1.470;2023-02-11T07:41:30;24.73;;;12.25;;
65583;SDS011;62116;43.582;1.470;2023-02-11T07:43:56;26.52;;;12.70;;
65583;SDS011;62116;43.582;1.470;2023-02-11T07:46:23;24.52;;;12.10;;
65583;SDS011;62116;43.582;1.470;2023-02-11T07:48:50;23.60;;;12.05;;
65583;SDS011;62116;43.582;1.470;2023-02-11T07:51:17;26.90;;;11.85;;
65583;SDS011;62116;43.582;1.470;2023-02-11T07:53:45;25.00;;;11.35;;
65583;SDS011;62116;43.582;1.470;2023-02-11T07:56:11;22.02;;;10.75;;
65583;SDS011;62116;43.582;1.470;2023-02-11T07:58:38;28.10;;;10.68;;
65583;SDS011;62116;43.582;1.470;2023-02-11T08:01:07;21.35;;;10.25;;
65583;SDS011;62116;43.582;1.470;2023-02-11T08:03:34;20.10;;;9.65;;
65583;SDS011;62116;43.582;1.470;2023-02-11T08:06:07;20.02;;;9.93;;
65583;SDS011;62116;43.582;1.470;2023-02-11T08:08:34;18.10;;;9.90;;
65583;SDS011;62116;43.582;1.470;2023-02-11T08:13:36;25.08;;;10.98;;
65583;SDS011;62116;43.582;1.470;2023-02-11T08:16:02;25.00;;;12.43;;
65583;SDS011;62116;43.582;1.470;2023-02-11T08:18:29;29.63;;;14.85;;
65583;SDS011;62116;43.582;1.470;2023-02-11T08:20:55;24.73;;;13.35;;
65583;SDS011;62116;43.582;1.470;2023-02-11T08:23:20;27.33;;;11.35;;
65583;SDS011;62116;43.582;1.470;2023-02-11T08:25:46;23.70;;;11.35;;
65583;SDS011;62116;43.582;1.470;2023-02-11T08:28:11;24.75;;;11.82;;
65583;SDS011;62116;43.582;1.470;2023-02-11T08:30:37;23.23;;;11.48;;
65583;SDS011;62116;43.582;1.470;2023-02-11T08:33:03;22.20;;;11.50;;
65583;SDS011;62116;43.582;1.470;2023-02-11T08:35:28;26.40;;;11.68;;
65583;SDS011;62116;43.582;1.470;2023-02-11T08:37:53;21.50;;;12.10;;
65583;SDS011;62116;43.582;1.470;2023-02-11T08:40:19;29.65;;;12.07;;
65583;SDS011;62116;43.582;1.470;2023-02-11T08:42:44;24.48;;;11.82;;
65583;SDS011;62116;43.582;1.470;2023-02-11T08:45:10;22.60;;;11.88;;
65583;SDS011;62116;43.582;1.470;2023-02-11T08:47:36;22.33;;;12.18;;
65583;SDS011;62116;43.582;1.470;2023-02-11T08:50:03;24.35;;;12.52;;
65583;SDS011;62116;43.582;1.470;2023-02-11T08:52:29;23.73;;;12.70;;
65583;SDS011;62116;43.582;1.470;2023-02-11T08:54:54;24.00;;;12.85;;
65583;SDS011;62116;43.582;1.470;2023-02-11T08:57:20;26.70;;;12.85;;
65583;SDS011;62116;43.582;1.470;2023-02-11T08:59:45;25.10;;;13.02;;
65583;SDS011;62116;43.582;1.470;2023-02-11T09:02:11;23.73;;;11.93;;
65583;SDS011;62116;43.582;1.470;2023-02-11T09:04:38;24.77;;;12.00;;
65583;SDS011;62116;43.582;1.470;2023-02-11T09:07:04;22.27;;;12.02;;
65583;SDS011;62116;43.582;1.470;2023-02-11T09:09:29;20.73;;;11.45;;
65583;SDS011;62116;43.582;1.470;2023-02-11T09:11:55;22.63;;;11.20;;
65583;SDS011;62116;43.582;1.470;2023-02-11T09:14:21;16.92;;;9.32;;
65583;SDS011;62116;43.582;1.470;2023-02-11T09:16:48;19.83;;;9.82;;
65583;SDS011;62116;43.582;1.470;2023-02-11T09:19:15;18.95;;;8.90;;
65583;SDS011;62116;43.582;1.470;2023-02-11T09:21:42;16.95;;;7.60;;
65583;SDS011;62116;43.582;1.470;2023-02-11T09:24:07;14.00;;;7.10;;
65583;SDS011;62116;43.582;1.470;2023-02-11T09:26:34;16.17;;;7.78;;
65583;SDS011;62116;43.582;1.470;2023-02-11T09:29:00;13.77;;;7.38;;
65583;SDS011;62116;43.582;1.470;2023-02-11T09:31:26;12.52;;;6.78;;
65583;SDS011;62116;43.582;1.470;2023-02-11T09:33:55;14.45;;;7.97;;
65583;SDS011;62116;43.582;1.470;2023-02-11T09:36:26;15.13;;;8.20;;
65583;SDS011;62116;43.582;1.470;2023-02-11T09:38:53;15.73;;;7.85;;
65583;SDS011;62116;43.582;1.470;2023-02-11T09:43:52;14.00;;;8.38;;
65583;SDS011;62116;43.582;1.470;2023-02-11T09:46:20;18.23;;;8.68;;
65583;SDS011;62116;43.582;1.470;2023-02-11T09:48:47;16.42;;;8.73;;
65583;SDS011;62116;43.582;1.470;2023-02-11T09:51:25;16.02;;;8.32;;
65583;SDS011;62116;43.582;1.470;2023-02-11T09:53:58;16.48;;;8.00;;
65583;SDS011;62116;43.582;1.470;2023-02-11T09:56:27;17.73;;;8.80;;
65583;SDS011;62116;43.582;1.470;2023-02-11T09:58:53;15.20;;;8.02;;
65583;SDS011;62116;43.582;1.470;2023-02-11T10:07:01;15.32;;;7.72;;
65583;SDS011;62116;43.582;1.470;2023-02-11T10:09:46;13.05;;;7.68;;
65583;SDS011;62116;43.582;1.470;2023-02-11T10:12:21;17.23;;;8.32;;
65583;SDS011;62116;43.582;1.470;2023-02-11T10:15:17;15.43;;;8.20;;
65583;SDS011;62116;43.582;1.470;2023-02-11T10:18:03;13.80;;;7.72;;
65583;SDS011;62116;43.582;1.470;2023-02-11T10:20:47;12.80;;;8.18;;
65583;SDS011;62116;43.582;1.470;2023-02-11T10:23:38;15.00;;;8.27;;
65583;SDS011;62116;43.582;1.470;2023-02-11T10:26:12;17.58;;;9.00;;
65583;SDS011;62116;43.582;1.470;2023-02-11T10:28:40;19.88;;;8.60;;
65583;SDS011;62116;43.582;1.470;2023-02-11T10:31:12;15.98;;;8.30;;
65583;SDS011;62116;43.582;1.470;2023-02-11T10:36:07;14.07;;;8.30;;
65583;SDS011;62116;43.582;1.470;2023-02-11T10:38:35;16.15;;;8.35;;
65583;SDS011;62116;43.582;1.470;2023-02-11T10:41:01;17.52;;;8.65;;
65583;SDS011;62116;43.582;1.470;2023-02-11T10:43:26;19.77;;;8.82;;
65583;SDS011;62116;43.582;1.470;2023-02-11T10:45:55;16.63;;;8.70;;
65583;SDS011;62116;43.582;1.470;2023-02-11T10:51:21;16.73;;;8.40;;
65583;SDS011;62116;43.582;1.470;2023-02-11T10:53:50;15.70;;;7.68;;
65583;SDS011;62116;43.582;1.470;2023-02-11T10:56:47;13.88;;;7.47;;
65583;SDS011;62116;43.582;1.470;2023-02-11T10:59:26;14.57;;;7.38;;
65583;SDS011;62116;43.582;1.470;2023-02-11T11:02:17;12.82;;;7.63;;
65583;SDS011;62116;43.582;1.470;2023-02-11T11:04:47;13.18;;;8.10;;
65583;SDS011;62116;43.582;1.470;2023-02-11T11:07:20;15.15;;;8.02;;
65583;SDS011;62116;43.582;1.470;2023-02-11T11:09:48;14.80;;;8.00;;
65583;SDS011;62116;43.582;1.470;2023-02-11T11:12:26;12.57;;;7.60;;
65583;SDS011;62116;43.582;1.470;2023-02-11T11:14:55;15.85;;;7.60;;
65583;SDS011;62116;43.582;1.470;2023-02-11T11:17:22;14.60;;;7.63;;
65583;SDS011;62116;43.582;1.470;2023-02-11T11:19:47;11.95;;;7.18;;
65583;SDS011;62116;43.582;1.470;2023-02-11T11:22:20;13.55;;;7.47;;
65583;SDS011;62116;43.582;1.470;2023-02-11T11:24:46;13.05;;;6.55;;
65583;SDS011;62116;43.582;1.470;2023-02-11T11:27:19;14.80;;;7.10;;
65583;SDS011;62116;43.582;1.470;2023-02-11T11:29:48;14.55;;;7.40;;
65583;SDS011;62116;43.582;1.470;2023-02-11T11:32:19;13.88;;;6.88;;
65583;SDS011;62116;43.582;1.470;2023-02-11T11:34:49;12.52;;;6.63;;
65583;SDS011;62116;43.582;1.470;2023-02-11T11:37:26;12.75;;;7.32;;
65583;SDS011;62116;43.582;1.470;2023-02-11T11:40:02;11.98;;;7.05;;
65583;SDS011;62116;43.582;1.470;2023-02-11T11:42:35;14.18;;;7.30;;
65583;SDS011;62116;43.582;1.470;2023-02-11T11:45:25;13.57;;;7.53;;
65583;SDS011;62116;43.582;1.470;2023-02-11T11:47:54;14.43;;;6.95;;
65583;SDS011;62116;43.582;1.470;2023-02-11T11:55:34;14.30;;;7.68;;
65583;SDS011;62116;43.582;1.470;2023-02-11T11:58:04;15.65;;;8.40;;
65583;SDS011;62116;43.582;1.470;2023-02-11T12:00:41;14.98;;;7.65;;
65583;SDS011;62116;43.582;1.470;2023-02-11T12:03:39;14.93;;;8.20;;
65583;SDS011;62116;43.582;1.470;2023-02-11T12:06:29;14.15;;;8.18;;
65583;SDS011;62116;43.582;1.470;2023-02-11T12:09:10;15.93;;;8.63;;
65583;SDS011;62116;43.582;1.470;2023-02-11T12:17:13;16.38;;;7.90;;
65583;SDS011;62116;43.582;1.470;2023-02-11T12:20:02;16.13;;;7.55;;
65583;SDS011;62116;43.582;1.470;2023-02-11T12:45:09;13.85;;;6.22;;
65583;SDS011;62116;43.582;1.470;2023-02-11T12:51:00;13.07;;;6.53;;
65583;SDS011;62116;43.582;1.470;2023-02-11T12:56:13;12.13;;;6.05;;
65583;SDS011;62116;43.582;1.470;2023-02-11T12:58:40;10.65;;;6.32;;
65583;SDS011;62116;43.582;1.470;2023-02-11T13:01:08;11.65;;;6.25;;
65583;SDS011;62116;43.582;1.470;2023-02-11T13:04:25;13.75;;;6.28;;
65583;SDS011;62116;43.582;1.470;2023-02-11T13:06:38;13.45;;;6.60;;
65583;SDS011;62116;43.582;1.470;2023-02-11T13:09:12;13.77;;;5.95;;
65583;SDS011;62116;43.582;1.470;2023-02-11T13:11:43;15.45;;;7.13;;
65583;SDS011;62116;43.582;1.470;2023-02-11T13:14:29;14.82;;;7.22;;
65583;SDS011;62116;43.582;1.470;2023-02-11T13:16:59;11.63;;;6.60;;
65583;SDS011;62116;43.582;1.470;2023-02-11T13:19:33;12.50;;;6.53;;
65583;SDS011;62116;43.582;1.470;2023-02-11T13:38:04;12.18;;;7.38;;
65583;SDS011;62116;43.582;1.470;2023-02-11T13:43:56;11.13;;;6.88;;
65583;SDS011;62116;43.582;1.470;2023-02-11T13:46:24;12.13;;;6.95;;
65583;SDS011;62116;43.582;1.470;2023-02-11T13:48:51;15.13;;;7.70;;
65583;SDS011;62116;43.582;1.470;2023-02-11T13:51:32;12.55;;;6.70;;
65583;SDS011;62116;43.582;1.470;2023-02-11T13:54:00;13.23;;;6.75;;
65583;SDS011;62116;43.582;1.470;2023-02-11T13:56:28;13.77;;;6.53;;
65583;SDS011;62116;43.582;1.470;2023-02-11T13:58:54;12.63;;;6.90;;
65583;SDS011;62116;43.582;1.470;2023-02-11T14:04:37;13.82;;;7.07;;
65583;SDS011;62116;43.582;1.470;2023-02-11T14:10:50;13.80;;;7.00;;
65583;SDS011;62116;43.582;1.470;2023-02-11T14:16:11;11.40;;;6.78;;
65583;SDS011;62116;43.582;1.470;2023-02-11T14:21:11;13.82;;;7.35;;
65583;SDS011;62116;43.582;1.470;2023-02-11T14:23:38;13.65;;;7.43;;
65583;SDS011;62116;43.582;1.470;2023-02-11T14:28:33;12.40;;;7.43;;
65583;SDS011;62116;43.582;1.470;2023-02-11T14:31:13;12.00;;;6.82;;
65583;SDS011;62116;43.582;1.470;2023-02-11T14:33:56;14.90;;;6.95;;
65583;SDS011;62116;43.582;1.470;2023-02-11T14:36:38;10.40;;;6.18;;
65583;SDS011;62116;43.582;1.470;2023-02-11T14:42:18;12.20;;;6.65;;
65583;SDS011;62116;43.582;1.470;2023-02-11T14:44:47;12.20;;;6.55;;
65583;SDS011;62116;43.582;1.470;2023-02-11T14:47:17;12.68;;;6.35;;
65583;SDS011;62116;43.582;1.470;2023-02-11T14:49:47;13.32;;;6.13;;
65583;SDS011;62116;43.582;1.470;2023-02-11T14:55:00;11.43;;;5.85;;
65583;SDS011;62116;43.582;1.470;2023-02-11T14:57:31;9.27;;;5.50;;
65583;SDS011;62116;43.582;1.470;2023-02-11T15:00:03;9.13;;;5.13;;
65583;SDS011;62116;43.582;1.470;2023-02-11T15:02:38;9.48;;;5.15;;
65583;SDS011;62116;43.582;1.470;2023-02-11T15:05:17;9.27;;;5.28;;
65583;SDS011;62116;43.582;1.470;2023-02-11T15:07:50;10.73;;;5.25;;
65583;SDS011;62116;43.582;1.470;2023-02-11T15:10:34;10.80;;;5.40;;
65583;SDS011;62116;43.582;1.470;2023-02-11T15:13:08;11.68;;;5.18;;
65583;SDS011;62116;43.582;1.470;2023-02-11T15:15:44;9.65;;;5.22;;
65583;SDS011;62116;43.582;1.470;2023-02-11T15:18:15;10.68;;;4.95;;
65583;SDS011;62116;43.582;1.470;2023-02-11T15:20:46;11.27;;;4.93;;
65583;SDS011;62116;43.582;1.470;2023-02-11T15:23:16;9.13;;;5.50;;
65583;SDS011;62116;43.582;1.470;2023-02-11T15:25:46;9.18;;;4.80;;
65583;SDS011;62116;43.582;1.470;2023-02-11T15:28:20;11.95;;;5.25;;
65583;SDS011;62116;43.582;1.470;2023-02-11T15:30:55;8.52;;;5.05;;
65583;SDS011;62116;43.582;1.470;2023-02-11T15:33:36;7.47;;;4.38;;
65583;SDS011;62116;43.582;1.470;2023-02-11T15:36:02;9.25;;;4.97;;
65583;SDS011;62116;43.582;1.470;2023-02-11T15:38:28;11.02;;;5.75;;
65583;SDS011;62116;43.582;1.470;2023-02-11T15:40:55;11.60;;;5.22;;
65583;SDS011;62116;43.582;1.470;2023-02-11T15:43:24;9.70;;;5.40;;
65583;SDS011;62116;43.582;1.470;2023-02-11T15:46:18;9.60;;;5.20;;
65583;SDS011;62116;43.582;1.470;2023-02-11T15:48:52;9.43;;;5.22;;
65583;SDS011;62116;43.582;1.470;2023-02-11T15:51:23;9.75;;;5.60;;
65583;SDS011;62116;43.582;1.470;2023-02-11T15:53:57;11.13;;;5.90;;
65583;SDS011;62116;43.582;1.470;2023-02-11T15:56:34;10.88;;;5.38;;
65583;SDS011;62116;43.582;1.470;2023-02-11T15:59:09;11.38;;;5.68;;
65583;SDS011;62116;43.582;1.470;2023-02-11T16:01:42;12.68;;;6.03;;
65583;SDS011;62116;43.582;1.470;2023-02-11T16:04:14;13.70;;;6.22;;
65583;SDS011;62116;43.582;1.470;2023-02-11T16:06:50;9.85;;;6.00;;
65583;SDS011;62116;43.582;1.470;2023-02-11T16:16:54;10.57;;;5.68;;
65583;SDS011;62116;43.582;1.470;2023-02-11T16:19:22;12.70;;;6.30;;
65583;SDS011;62116;43.582;1.470;2023-02-11T16:21:49;13.75;;;6.05;;
65583;SDS011;62116;43.582;1.470;2023-02-11T16:24:20;11.10;;;5.75;;
65583;SDS011;62116;43.582;1.470;2023-02-11T16:26:52;12.40;;;6.28;;
65583;SDS011;62116;43.582;1.470;2023-02-11T16:29:25;11.43;;;5.90;;
65583;SDS011;62116;43.582;1.470;2023-02-11T16:31:52;12.00;;;5.50;;
65583;SDS011;62116;43.582;1.470;2023-02-11T16:34:28;14.85;;;6.10;;
65583;SDS011;62116;43.582;1.470;2023-02-11T16:36:54;11.77;;;6.05;;
65583;SDS011;62116;43.582;1.470;2023-02-11T16:39:19;9.73;;;6.00;;
65583;SDS011;62116;43.582;1.470;2023-02-11T16:41:48;11.95;;;6.00;;
65583;SDS011;62116;43.582;1.470;2023-02-11T16:44:15;11.55;;;5.90;;
65583;SDS011;62116;43.582;1.470;2023-02-11T16:46:41;11.40;;;5.75;;
65583;SDS011;62116;43.582;1.470;2023-02-11T16:49:08;10.27;;;5.60;;
65583;SDS011;62116;43.582;1.470;2023-02-11T16:51:41;10.93;;;5.85;;
65583;SDS011;62116;43.582;1.470;2023-02-11T16:54:13;10.38;;;5.80;;
65583;SDS011;62116;43.582;1.470;2023-02-11T16:56:40;13.38;;;6.82;;
65583;SDS011;62116;43.582;1.470;2023-02-11T16:59:06;11.75;;;6.25;;
65583;SDS011;62116;43.582;1.470;2023-02-11T17:01:32;10.63;;;5.40;;
65583;SDS011;62116;43.582;1.470;2023-02-11T17:03:58;14.20;;;6.30;;
65583;SDS011;62116;43.582;1.470;2023-02-11T17:06:23;11.30;;;6.10;;